Manistee, MI (49660)

11:10 AM EDT on April 24, 2017 (GMT -0400)
Maxwell town | | Change Station

Elev 587 ft 44.24 °N, 86.31 °W | Updated 19 seconds ago

Clear
Clear
58.0 °F
Feels Like 58.0 °F
N
9.0
Wind Variable Wind from South
Gusts 14.0 mph

Today
High -- | Low -- °F
--% Chance of Precip.
Yesterday
High -- | Low -- °F
Precip. -- in
Pressure 30.11 in
Visibility 10.0 miles
Clouds Clear
Dew Point 42 °F
Humidity 55%
Rainfall 0.00 in
Snow Depth Not available.
6:46 AM 8:40 PM
Waning Crescent, 5% visible
METAR KMBL 241456Z AUTO 14007KT 10SM CLR 15/03 A3003 RMK AO2 SLP195 T01500033 58008
Pressure 30.11 in
Visibility 10.0 miles
Clouds Clear
Dew Point 42 °F
Humidity 55%
Rainfall 0.00 in
Snow Depth Not available.
6:46 AM 8:40 PM
Waning Crescent, 5% visible
METAR KMBL 241456Z AUTO 14007KT 10SM CLR 15/03 A3003 RMK AO2 SLP195 T01500033 58008

Get Severe Weather Alerts

Thanks for signing up!

Be on the lookout for a verification email in your inbox.

You'll start receiving the daily forecast at 8 AM.

×

10-Day Weather Forecast

Almanac

Astronomy

Apr. 24, 2017 Rise Set
Actual Time
Civil Twilight
Nautical Twilight
Astronomical Twilight
Moon
Length of Visible Light
Length of Day
Tomorrow will be .
, % of the Moon is Illuminated

Today's Extremes

State Highs State Lows

Community

WunderPhotos

WunderBlog® & News

Nearby

Air Quality

  Air Quality AQ Index Pollutant
Not available.

Snow Depth

Station Depth Elevation

Earthquake Activity

City Distance Mag. Time & Date
Minimum magnitude displayed is 2.5.

Coastal Water Temperatures

Place Temperature

Stations

Nearby Weather Stations

Station Location Temp. Windchill Dew Point Humidity Wind Precip. Elev Updated Type
                   

Watches & Warnings

There are currently no watches in effect.